Time;durP1;ratioP1;P1;durP2;ratioP2;P2;SDS_P1;SDS_P2;PMS_P1;PMS_P2;Temp;Humidity;BMP_temperature;BMP_pressure;BME280_temperature;BME280_humidity;BME280_pressure;Samples;Min_cycle;Max_cycle;Signal;HPM_P1;HPM_P2
2024/04/08 00:00:32;;;;;;;7.45;1.92;;;;;;;;;;5053933;28;20404;-61
2024/04/08 00:02:59;;;;;;;2.63;2.42;;;;;;;;;;5051510;28;20048;-61
2024/04/08 00:05:25;;;;;;;4.95;1.75;;;;;;;;;;5056503;28;20036;-62
2024/04/08 00:07:51;;;;;;;4.65;1.55;;;;;;;;;;5053343;28;21114;-61
2024/04/08 00:10:18;;;;;;;1.92;1.58;;;;;;;;;;5050323;28;20025;-62
2024/04/08 00:12:45;;;;;;;1.38;1.27;;;;;;;;;;5052322;28;20593;-61
2024/04/08 00:15:11;;;;;;;3.50;2.13;;;;;;;;;;5051889;28;20502;-62
2024/04/08 00:17:38;;;;;;;3.70;1.90;;;;;;;;;;5054101;28;20453;-62
2024/04/08 00:20:04;;;;;;;4.38;1.52;;;;;;;;;;5054510;28;20020;-63
2024/04/08 00:22:31;;;;;;;3.35;1.70;;;;;;;;;;5066925;28;20032;-62
2024/04/08 00:24:57;;;;;;;2.50;1.48;;;;;;;;;;5049435;28;20448;-62
2024/04/08 00:27:23;;;;;;;5.38;1.92;;;;;;;;;;5052420;28;20110;-65
2024/04/08 00:29:49;;;;;;;5.13;2.17;;;;;;;;;;5057930;28;20115;-72
2024/04/08 00:32:16;;;;;;;2.83;2.05;;;;;;;;;;5058038;28;20115;-70
2024/04/08 00:34:42;;;;;;;3.22;1.75;;;;;;;;;;5054698;28;20032;-72
2024/04/08 00:37:08;;;;;;;3.55;1.90;;;;;;;;;;5055142;28;20051;-70
2024/04/08 00:39:35;;;;;;;4.65;2.17;;;;;;;;;;5054440;28;20122;-70
2024/04/08 00:42:01;;;;;;;2.15;1.63;;;;;;;;;;5056586;28;20024;-70
2024/04/08 00:44:28;;;;;;;1.58;1.48;;;;;;;;;;5052900;28;20027;-74
2024/04/08 00:46:54;;;;;;;3.03;1.77;;;;;;;;;;5058093;28;20025;-70
2024/04/08 00:49:21;;;;;;;2.83;1.90;;;;;;;;;;5053029;28;20029;-70
2024/04/08 00:51:47;;;;;;;8.02;1.70;;;;;;;;;;5050615;28;20035;-70
2024/04/08 00:54:14;;;;;;;1.92;1.70;;;;;;;;;;5053326;28;20029;-70
2024/04/08 00:56:40;;;;;;;2.53;1.65;;;;;;;;;;5051825;28;20104;-70
2024/04/08 00:59:08;;;;;;;1.63;1.50;;;;;;;;;;5051939;28;20266;-70
2024/04/08 01:01:34;;;;;;;3.17;1.27;;;;;;;;;;5048292;28;20029;-71
2024/04/08 01:04:00;;;;;;;11.63;2.25;;;;;;;;;;5048810;28;20040;-70
2024/04/08 01:06:27;;;;;;;2.78;2.10;;;;;;;;;;5045575;28;20024;-71
2024/04/08 01:08:53;;;;;;;3.85;1.75;;;;;;;;;;5051586;28;20036;-70
2024/04/08 01:11:19;;;;;;;3.50;2.30;;;;;;;;;;5052972;28;20032;-70
2024/04/08 01:13:45;;;;;;;1.92;1.83;;;;;;;;;;5052782;28;20082;-70
2024/04/08 01:16:11;;;;;;;2.78;1.45;;;;;;;;;;5053584;28;20052;-70
2024/04/08 01:18:38;;;;;;;2.30;1.38;;;;;;;;;;5050610;28;20602;-70
2024/04/08 01:21:04;;;;;;;2.40;2.17;;;;;;;;;;5050673;28;20120;-70
2024/04/08 01:23:35;;;;;;;4.65;1.80;;;;;;;;;;5054513;28;20035;-70
2024/04/08 01:26:02;;;;;;;4.38;1.40;;;;;;;;;;5052381;28;20029;-70
2024/04/08 01:28:28;;;;;;;4.05;1.88;;;;;;;;;;5054245;28;20029;-70
2024/04/08 01:30:55;;;;;;;10.43;2.20;;;;;;;;;;5051902;28;20035;-70
2024/04/08 01:33:22;;;;;;;6.00;1.65;;;;;;;;;;5053363;28;20029;-70
2024/04/08 01:35:48;;;;;;;5.35;1.58;;;;;;;;;;5049895;28;20024;-70
2024/04/08 01:38:14;;;;;;;4.55;1.50;;;;;;;;;;5049993;28;20029;-70
2024/04/08 01:40:40;;;;;;;6.22;1.58;;;;;;;;;;5050536;28;20031;-70
2024/04/08 01:43:06;;;;;;;4.53;1.80;;;;;;;;;;5054040;28;20352;-70
2024/04/08 01:45:32;;;;;;;3.08;2.00;;;;;;;;;;5052183;28;20509;-70
2024/04/08 01:47:58;;;;;;;3.55;1.92;;;;;;;;;;5054898;28;20337;-70
2024/04/08 01:50:24;;;;;;;6.63;1.75;;;;;;;;;;5054570;28;20040;-70
2024/04/08 01:52:51;;;;;;;4.10;1.33;;;;;;;;;;5060590;28;20035;-70
2024/04/08 01:55:17;;;;;;;2.67;1.30;;;;;;;;;;5056730;28;20032;-62
2024/04/08 01:57:44;;;;;;;7.38;2.75;;;;;;;;;;5050906;28;21668;-61
2024/04/08 02:00:10;;;;;;;3.20;2.03;;;;;;;;;;5056226;28;20496;-62
2024/04/08 02:02:36;;;;;;;3.58;1.45;;;;;;;;;;5052118;28;20123;-62
2024/04/08 02:05:02;;;;;;;3.10;1.48;;;;;;;;;;5055589;28;20037;-62
2024/04/08 02:07:28;;;;;;;5.00;1.38;;;;;;;;;;5055561;28;20032;-62
2024/04/08 02:09:55;;;;;;;1.98;1.75;;;;;;;;;;5054543;28;20392;-61
2024/04/08 02:12:21;;;;;;;1.25;1.25;;;;;;;;;;5069370;28;20067;-62
2024/04/08 02:14:47;;;;;;;3.78;1.67;;;;;;;;;;5051916;28;20024;-62
2024/04/08 02:17:13;;;;;;;4.15;1.42;;;;;;;;;;5049294;28;20165;-62
2024/04/08 02:19:40;;;;;;;3.67;1.50;;;;;;;;;;5052694;28;20067;-62
2024/04/08 02:22:06;;;;;;;3.30;2.00;;;;;;;;;;5066315;28;20893;-61
2024/04/08 02:24:32;;;;;;;13.88;2.13;;;;;;;;;;5049804;28;20034;-62
2024/04/08 02:26:58;;;;;;;11.57;2.55;;;;;;;;;;5050170;28;20024;-62
2024/04/08 02:29:25;;;;;;;1.40;1.30;;;;;;;;;;5052892;28;20127;-62
2024/04/08 02:31:51;;;;;;;2.72;1.52;;;;;;;;;;5048114;28;20184;-62
2024/04/08 02:34:17;;;;;;;1.90;1.80;;;;;;;;;;5052159;28;20671;-61
2024/04/08 02:36:44;;;;;;;3.75;2.00;;;;;;;;;;5055907;28;20059;-62
2024/04/08 02:39:10;;;;;;;2.85;1.50;;;;;;;;;;5053974;28;20488;-65
2024/04/08 02:41:36;;;;;;;3.03;1.58;;;;;;;;;;5047154;28;20033;-62
2024/04/08 02:44:02;;;;;;;4.40;1.65;;;;;;;;;;5053610;28;20013;-62
2024/04/08 02:46:28;;;;;;;4.10;1.42;;;;;;;;;;5051238;28;20098;-62
2024/04/08 02:48:54;;;;;;;3.95;1.80;;;;;;;;;;5052649;28;20113;-61
2024/04/08 02:51:21;;;;;;;1.40;1.30;;;;;;;;;;5049814;28;20032;-62
2024/04/08 02:53:47;;;;;;;2.60;1.67;;;;;;;;;;5048538;28;20447;-62
2024/04/08 02:56:13;;;;;;;1.52;1.30;;;;;;;;;;5048485;28;20552;-62
2024/04/08 02:58:39;;;;;;;1.75;1.25;;;;;;;;;;5050446;28;20457;-62
2024/04/08 03:01:09;;;;;;;2.05;1.50;;;;;;;;;;5050428;28;20025;-62
2024/04/08 03:03:35;;;;;;;4.65;2.00;;;;;;;;;;5049866;28;20145;-62
2024/04/08 03:06:11;;;;;;;2.08;1.58;;;;;;;;;;5051247;28;20043;-62
2024/04/08 03:08:37;;;;;;;7.57;1.73;;;;;;;;;;5055007;28;20115;-62
2024/04/08 03:11:04;;;;;;;6.28;2.05;;;;;;;;;;5056331;28;20037;-62
2024/04/08 03:13:31;;;;;;;9.07;1.80;;;;;;;;;;5047480;28;20025;-64
2024/04/08 03:15:57;;;;;;;2.45;1.45;;;;;;;;;;5048601;28;20040;-62
2024/04/08 03:18:26;;;;;;;6.85;1.83;;;;;;;;;;5053157;28;20028;-62
2024/04/08 03:20:55;;;;;;;6.53;1.70;;;;;;;;;;5050218;28;20562;-62
2024/04/08 03:23:22;;;;;;;5.50;1.63;;;;;;;;;;5050688;28;20024;-62
2024/04/08 03:25:49;;;;;;;4.90;1.83;;;;;;;;;;5050133;28;20036;-62
2024/04/08 03:28:15;;;;;;;5.30;2.05;;;;;;;;;;5055140;28;20029;-62
2024/04/08 03:30:41;;;;;;;4.45;1.77;;;;;;;;;;5044604;28;20032;-62
2024/04/08 03:33:07;;;;;;;3.53;1.25;;;;;;;;;;5051077;28;20032;-62
2024/04/08 03:35:33;;;;;;;2.38;1.48;;;;;;;;;;5051778;28;20111;-62
2024/04/08 03:37:59;;;;;;;3.45;1.67;;;;;;;;;;5050148;28;20025;-61
2024/04/08 03:40:26;;;;;;;6.57;2.28;;;;;;;;;;5053434;28;20433;-62
2024/04/08 03:42:52;;;;;;;3.58;1.73;;;;;;;;;;5053071;28;20033;-62
2024/04/08 03:45:18;;;;;;;5.70;1.92;;;;;;;;;;5053991;28;20526;-62
2024/04/08 03:47:44;;;;;;;4.35;1.70;;;;;;;;;;5049388;28;20029;-62
2024/04/08 03:50:10;;;;;;;4.28;1.98;;;;;;;;;;5050014;28;20029;-62
2024/04/08 03:52:36;;;;;;;1.70;1.60;;;;;;;;;;5048299;28;20021;-62
2024/04/08 03:55:02;;;;;;;3.20;1.77;;;;;;;;;;5060090;28;20070;-62
2024/04/08 03:57:29;;;;;;;6.60;1.98;;;;;;;;;;5052422;28;20035;-63
2024/04/08 03:59:55;;;;;;;2.13;1.98;;;;;;;;;;5052665;28;20032;-66
2024/04/08 04:02:21;;;;;;;2.30;2.15;;;;;;;;;;5050151;28;20507;-61
2024/04/08 04:04:47;;;;;;;5.18;2.10;;;;;;;;;;5047943;28;21475;-62
2024/04/08 04:07:13;;;;;;;7.82;1.58;;;;;;;;;;5050146;28;20520;-62
2024/04/08 04:09:39;;;;;;;2.03;1.40;;;;;;;;;;5047346;28;20028;-62
2024/04/08 04:12:06;;;;;;;16.63;2.63;;;;;;;;;;5054226;28;20682;-65
2024/04/08 04:14:33;;;;;;;3.22;1.42;;;;;;;;;;5047713;28;20283;-63
2024/04/08 04:16:59;;;;;;;1.42;1.33;;;;;;;;;;5050458;28;20024;-62
2024/04/08 04:19:25;;;;;;;4.93;1.70;;;;;;;;;;5048021;28;20033;-62
2024/04/08 04:21:51;;;;;;;1.85;1.73;;;;;;;;;;5049349;28;20036;-61
2024/04/08 04:24:17;;;;;;;5.00;1.80;;;;;;;;;;5050620;28;20428;-62
2024/04/08 04:26:43;;;;;;;7.78;1.98;;;;;;;;;;5047517;28;20035;-62
2024/04/08 04:29:09;;;;;;;1.98;1.58;;;;;;;;;;5051530;28;20028;-62
2024/04/08 04:31:42;;;;;;;7.03;1.80;;;;;;;;;;5051344;28;20419;-65
2024/04/08 04:34:09;;;;;;;4.68;1.90;;;;;;;;;;5049959;28;20357;-62
2024/04/08 04:36:35;;;;;;;3.63;1.65;;;;;;;;;;5051294;28;20033;-62
2024/04/08 04:39:03;;;;;;;12.07;2.08;;;;;;;;;;5051958;28;20029;-62
2024/04/08 04:41:29;;;;;;;5.90;1.73;;;;;;;;;;5032063;28;20025;-62
2024/04/08 04:43:55;;;;;;;1.45;1.45;;;;;;;;;;5051660;28;20469;-62
2024/04/08 04:46:21;;;;;;;3.30;1.85;;;;;;;;;;5049613;28;20641;-62
2024/04/08 04:48:47;;;;;;;9.80;1.65;;;;;;;;;;5051666;28;20028;-62
2024/04/08 04:51:13;;;;;;;5.15;1.77;;;;;;;;;;5049905;28;20078;-62
2024/04/08 04:53:39;;;;;;;1.90;1.70;;;;;;;;;;5050019;28;20220;-62
2024/04/08 04:56:06;;;;;;;1.83;1.67;;;;;;;;;;5047403;28;20877;-62
2024/04/08 04:58:32;;;;;;;6.75;1.65;;;;;;;;;;5056791;28;20020;-62
2024/04/08 05:00:58;;;;;;;3.75;1.50;;;;;;;;;;5049863;28;20035;-62
2024/04/08 05:03:24;;;;;;;5.38;1.60;;;;;;;;;;5051454;28;20065;-61
2024/04/08 05:05:54;;;;;;;5.50;1.70;;;;;;;;;;5049519;28;20028;-62
2024/04/08 05:08:20;;;;;;;1.50;1.40;;;;;;;;;;5050709;28;20516;-62
2024/04/08 05:10:46;;;;;;;1.50;1.40;;;;;;;;;;5049167;28;20064;-62
2024/04/08 05:13:15;;;;;;;4.80;1.58;;;;;;;;;;5047583;28;20028;-62
2024/04/08 05:15:42;;;;;;;1.65;1.55;;;;;;;;;;5051564;28;20408;-62
2024/04/08 05:18:08;;;;;;;4.90;2.17;;;;;;;;;;5047974;28;20020;-64
2024/04/08 05:20:34;;;;;;;3.58;1.15;;;;;;;;;;5049368;28;20025;-61
2024/04/08 05:23:01;;;;;;;1.52;1.42;;;;;;;;;;5047015;28;20649;-62
2024/04/08 05:25:27;;;;;;;3.42;1.77;;;;;;;;;;5048472;28;20033;-62
2024/04/08 05:27:54;;;;;;;1.67;1.58;;;;;;;;;;5045600;28;20059;-62
2024/04/08 05:30:20;;;;;;;10.35;2.38;;;;;;;;;;5042398;28;20486;-62
2024/04/08 05:32:46;;;;;;;3.53;1.58;;;;;;;;;;5050027;28;20634;-62
2024/04/08 05:35:13;;;;;;;3.75;1.80;;;;;;;;;;5048854;28;20713;-61
2024/04/08 05:37:39;;;;;;;2.40;1.40;;;;;;;;;;5053685;28;20031;-64
2024/04/08 05:40:09;;;;;;;2.40;1.55;;;;;;;;;;5050907;28;20031;-63
2024/04/08 05:42:35;;;;;;;2.55;1.48;;;;;;;;;;5052041;28;20036;-63
2024/04/08 05:45:01;;;;;;;7.40;1.45;;;;;;;;;;5052929;28;20610;-63
2024/04/08 05:47:27;;;;;;;2.78;1.77;;;;;;;;;;5054130;28;20200;-64
2024/04/08 05:49:53;;;;;;;1.23;1.23;;;;;;;;;;5051021;28;20123;-63
2024/04/08 05:52:19;;;;;;;1.23;1.20;;;;;;;;;;5050938;28;20029;-63
2024/04/08 05:54:46;;;;;;;1.85;1.75;;;;;;;;;;5052707;28;20599;-63
2024/04/08 05:57:12;;;;;;;7.45;1.38;;;;;;;;;;5044194;28;20039;-63
2024/04/08 05:59:39;;;;;;;1.75;1.40;;;;;;;;;;5040224;28;20373;-63
2024/04/08 06:02:06;;;;;;;1.13;1.13;;;;;;;;;;5047016;28;20036;-63
2024/04/08 06:04:33;;;;;;;2.13;1.45;;;;;;;;;;5048337;28;20017;-63
2024/04/08 06:06:59;;;;;;;8.02;1.55;;;;;;;;;;5051462;28;20025;-63
2024/04/08 06:09:25;;;;;;;1.27;1.15;;;;;;;;;;5048256;28;20132;-63
2024/04/08 06:11:51;;;;;;;6.18;1.88;;;;;;;;;;5047642;28;20104;-63
2024/04/08 06:14:17;;;;;;;1.10;1.10;;;;;;;;;;5053263;28;20032;-63
2024/04/08 06:16:44;;;;;;;5.72;1.50;;;;;;;;;;5048524;28;20053;-62
2024/04/08 06:19:10;;;;;;;3.70;1.58;;;;;;;;;;5054673;28;20025;-62
2024/04/08 06:21:36;;;;;;;1.67;1.58;;;;;;;;;;5049740;28;20579;-62
2024/04/08 06:24:02;;;;;;;9.35;1.63;;;;;;;;;;5048820;28;20025;-63
2024/04/08 06:26:28;;;;;;;3.05;1.60;;;;;;;;;;5051783;28;20060;-62
2024/04/08 06:28:54;;;;;;;1.40;1.30;;;;;;;;;;5051797;28;20123;-62
2024/04/08 06:31:20;;;;;;;7.10;2.08;;;;;;;;;;5048156;28;20282;-62
2024/04/08 06:33:47;;;;;;;2.95;1.70;;;;;;;;;;5051170;28;20136;-61
2024/04/08 06:36:13;;;;;;;1.70;1.60;;;;;;;;;;5050614;28;20091;-62
2024/04/08 06:38:39;;;;;;;3.70;1.40;;;;;;;;;;5047177;28;20029;-62
2024/04/08 06:41:06;;;;;;;3.80;1.50;;;;;;;;;;5048694;28;20243;-62
2024/04/08 06:43:32;;;;;;;1.13;1.13;;;;;;;;;;5050422;28;20482;-62
2024/04/08 06:45:58;;;;;;;2.03;1.40;;;;;;;;;;5054681;28;20032;-62
2024/04/08 06:48:25;;;;;;;1.13;1.13;;;;;;;;;;5054361;28;20040;-61
2024/04/08 06:50:51;;;;;;;1.70;1.58;;;;;;;;;;5059502;28;20079;-62
2024/04/08 06:53:17;;;;;;;5.45;1.70;;;;;;;;;;5046655;28;20416;-62
2024/04/08 06:55:44;;;;;;;2.72;1.52;;;;;;;;;;5052564;28;20031;-62
2024/04/08 06:58:14;;;;;;;5.68;1.67;;;;;;;;;;5055969;28;20095;-61
2024/04/08 07:00:41;;;;;;;3.65;2.50;;;;;;;;;;5051808;28;20024;-62
2024/04/08 07:03:08;;;;;;;2.28;1.20;;;;;;;;;;5047071;28;20571;-62
2024/04/08 07:05:35;;;;;;;3.40;1.73;;;;;;;;;;5058491;28;20033;-62
2024/04/08 07:08:01;;;;;;;3.38;1.75;;;;;;;;;;5054589;28;20016;-62
2024/04/08 07:10:27;;;;;;;1.17;1.17;;;;;;;;;;5053591;28;20033;-62
2024/04/08 07:12:53;;;;;;;2.72;1.65;;;;;;;;;;5056383;28;20606;-62
2024/04/08 07:15:20;;;;;;;4.32;1.92;;;;;;;;;;5052553;28;20025;-62
2024/04/08 07:17:47;;;;;;;1.23;1.23;;;;;;;;;;5054202;28;20312;-62
2024/04/08 07:20:13;;;;;;;1.63;1.42;;;;;;;;;;5054168;28;20459;-62
2024/04/08 07:22:39;;;;;;;6.07;1.70;;;;;;;;;;5051906;28;20027;-62
2024/04/08 07:25:05;;;;;;;1.77;1.40;;;;;;;;;;5043803;28;20131;-62
2024/04/08 07:27:32;;;;;;;1.52;1.42;;;;;;;;;;5046964;28;20032;-62
2024/04/08 07:29:58;;;;;;;1.27;1.27;;;;;;;;;;5054440;28;20024;-62
2024/04/08 07:32:26;;;;;;;3.45;1.67;;;;;;;;;;5052311;28;20400;-62
2024/04/08 07:34:52;;;;;;;1.67;1.08;;;;;;;;;;5051126;28;20025;-62
2024/04/08 07:37:18;;;;;;;1.80;1.70;;;;;;;;;;5056373;28;20033;-62
2024/04/08 07:39:45;;;;;;;2.60;1.38;;;;;;;;;;5053504;28;20415;-62
2024/04/08 07:42:11;;;;;;;8.77;1.65;;;;;;;;;;5048990;28;20653;-62
2024/04/08 07:44:38;;;;;;;5.40;2.10;;;;;;;;;;5056894;28;20464;-62
2024/04/08 07:47:04;;;;;;;5.10;2.20;;;;;;;;;;5053435;28;20454;-62
2024/04/08 07:49:30;;;;;;;23.08;10.75;;;;;;;;;;5051918;28;20029;-62
2024/04/08 07:51:57;;;;;;;8.52;6.20;;;;;;;;;;5052449;28;20033;-62
2024/04/08 07:54:23;;;;;;;36.40;14.93;;;;;;;;;;5052151;28;20021;-62
2024/04/08 07:56:49;;;;;;;11.63;4.80;;;;;;;;;;5052126;28;20051;-62
2024/04/08 07:59:15;;;;;;;21.02;10.57;;;;;;;;;;5051699;28;20523;-62
2024/04/08 08:01:41;;;;;;;11.23;5.80;;;;;;;;;;5053285;28;20029;-62
2024/04/08 08:04:08;;;;;;;11.77;4.95;;;;;;;;;;5052180;28;20052;-61
2024/04/08 08:06:35;;;;;;;4.47;2.53;;;;;;;;;;5055047;28;20647;-62
2024/04/08 08:09:01;;;;;;;6.63;4.05;;;;;;;;;;5053439;28;20103;-62
2024/04/08 08:11:27;;;;;;;2.85;2.55;;;;;;;;;;5053344;28;20063;-62
2024/04/08 08:13:53;;;;;;;2.50;2.30;;;;;;;;;;5053082;28;20801;-62
2024/04/08 08:16:20;;;;;;;6.25;2.95;;;;;;;;;;5050783;28;20785;-62
2024/04/08 08:18:47;;;;;;;2.78;1.98;;;;;;;;;;5052021;28;20037;-62
2024/04/08 08:21:13;;;;;;;4.22;2.05;;;;;;;;;;5048282;28;20506;-62
2024/04/08 08:23:39;;;;;;;2.67;2.20;;;;;;;;;;5056004;28;20504;-61
2024/04/08 08:26:05;;;;;;;4.65;2.75;;;;;;;;;;5049755;28;20040;-62
2024/04/08 08:28:31;;;;;;;2.00;1.90;;;;;;;;;;5056604;28;20023;-62
2024/04/08 08:30:58;;;;;;;6.05;3.13;;;;;;;;;;5050321;28;20373;-62
2024/04/08 08:33:24;;;;;;;1.75;1.65;;;;;;;;;;5057243;28;20056;-71
2024/04/08 08:35:50;;;;;;;4.70;3.08;;;;;;;;;;5051724;28;20545;-71
2024/04/08 08:38:17;;;;;;;9.75;6.13;;;;;;;;;;5057125;28;20465;-71
2024/04/08 08:40:44;;;;;;;5.15;3.22;;;;;;;;;;5053161;28;20061;-71
2024/04/08 08:43:10;;;;;;;3.22;2.00;;;;;;;;;;5058365;28;20028;-61
2024/04/08 08:45:41;;;;;;;8.52;2.53;;;;;;;;;;5050945;28;20035;-61
2024/04/08 08:48:08;;;;;;;2.60;1.85;;;;;;;;;;5053887;28;21073;-62
2024/04/08 08:50:35;;;;;;;4.03;2.10;;;;;;;;;;5052325;28;20043;-62
2024/04/08 08:53:02;;;;;;;2.78;2.35;;;;;;;;;;5054574;28;20033;-62
2024/04/08 08:55:30;;;;;;;2.63;2.00;;;;;;;;;;5055098;28;20042;-62
2024/04/08 08:57:56;;;;;;;2.20;1.60;;;;;;;;;;5056097;28;20040;-62
2024/04/08 09:00:23;;;;;;;1.58;1.48;;;;;;;;;;5048472;28;21177;-62
2024/04/08 09:02:51;;;;;;;4.05;2.42;;;;;;;;;;5052799;28;20044;-70
2024/04/08 09:05:17;;;;;;;4.07;2.15;;;;;;;;;;5052949;28;20059;-71
2024/04/08 09:07:43;;;;;;;1.98;1.88;;;;;;;;;;5054170;28;20121;-71
2024/04/08 09:10:10;;;;;;;8.40;2.50;;;;;;;;;;5050916;28;20029;-71
2024/04/08 09:12:41;;;;;;;1.90;1.73;;;;;;;;;;5050323;28;20035;-70
2024/04/08 09:15:08;;;;;;;3.53;1.90;;;;;;;;;;5052216;28;20479;-72
2024/04/08 09:17:34;;;;;;;3.40;1.58;;;;;;;;;;5054802;28;20024;-72
2024/04/08 09:20:03;;;;;;;2.58;2.10;;;;;;;;;;5049232;28;20768;-71
2024/04/08 09:22:30;;;;;;;2.33;2.13;;;;;;;;;;5046981;28;20245;-71
2024/04/08 09:24:56;;;;;;;3.67;1.88;;;;;;;;;;5051088;28;20024;-70
2024/04/08 09:27:23;;;;;;;1.80;1.70;;;;;;;;;;5051666;28;20040;-71
2024/04/08 09:29:49;;;;;;;1.60;1.40;;;;;;;;;;5048098;28;20343;-71
2024/04/08 09:32:16;;;;;;;4.72;2.25;;;;;;;;;;5051649;28;20501;-71
2024/04/08 09:34:42;;;;;;;4.88;2.17;;;;;;;;;;5053707;28;20032;-70
2024/04/08 09:37:10;;;;;;;2.55;2.25;;;;;;;;;;5052740;28;20025;-72
2024/04/08 09:39:40;;;;;;;5.40;2.88;;;;;;;;;;5052760;28;20024;-70
2024/04/08 09:42:09;;;;;;;5.25;3.03;;;;;;;;;;5054076;28;20361;-70
2024/04/08 09:44:35;;;;;;;3.75;2.03;;;;;;;;;;5052425;28;20029;-70
2024/04/08 09:47:02;;;;;;;2.80;2.50;;;;;;;;;;5055179;28;20600;-71
2024/04/08 09:49:28;;;;;;;2.33;2.13;;;;;;;;;;5045505;28;20405;-72
2024/04/08 09:51:56;;;;;;;4.97;1.98;;;;;;;;;;5054678;28;20116;-73
2024/04/08 09:54:22;;;;;;;2.15;1.98;;;;;;;;;;5056365;28;20025;-71
2024/04/08 09:56:58;;;;;;;4.00;1.60;;;;;;;;;;5061999;28;20504;-72
2024/04/08 09:59:25;;;;;;;1.95;1.85;;;;;;;;;;5054868;28;20068;-71
2024/04/08 10:01:54;;;;;;;2.22;2.03;;;;;;;;;;5052920;28;20032;-71
2024/04/08 10:04:21;;;;;;;6.63;1.85;;;;;;;;;;5055393;28;20036;-71
2024/04/08 10:06:48;;;;;;;2.20;2.00;;;;;;;;;;5054717;28;20059;-71
2024/04/08 10:09:15;;;;;;;2.40;2.20;;;;;;;;;;5052808;28;20741;-70
2024/04/08 10:13:05;;;;;;;;;;;;;;;;;;5499928;25;21126;-69
2024/04/08 10:15:32;;;;;;;1.80;1.70;;;;;;;;;;5457367;25;19932;-70
2024/04/08 10:17:59;;;;;;;1.63;1.52;;;;;;;;;;5474416;25;20505;-71
2024/04/08 10:20:25;;;;;;;3.85;1.83;;;;;;;;;;5472621;25;20002;-70
2024/04/08 10:22:52;;;;;;;1.92;1.83;;;;;;;;;;5460415;25;20043;-70
2024/04/08 10:25:47;;;;;;;3.78;2.80;;;;;;;;;;5465200;25;20002;-70
2024/04/08 10:28:14;;;;;;;3.58;1.70;;;;;;;;;;5468963;25;20044;-71
2024/04/08 10:30:42;;;;;;;4.93;2.80;;;;;;;;;;5466421;25;20478;-69
2024/04/08 10:33:10;;;;;;;2.67;1.70;;;;;;;;;;5443730;25;20001;-69
2024/04/08 10:35:36;;;;;;;2.83;2.00;;;;;;;;;;5475109;25;20020;-69
2024/04/08 10:38:03;;;;;;;2.38;1.95;;;;;;;;;;5443763;25;20451;-71
2024/04/08 10:40:29;;;;;;;6.60;2.40;;;;;;;;;;5470088;25;20430;-70
2024/04/08 10:42:58;;;;;;;2.53;1.55;;;;;;;;;;5466418;25;20006;-71
2024/04/08 10:45:25;;;;;;;1.98;1.20;;;;;;;;;;5476788;25;20002;-69
2024/04/08 10:47:58;;;;;;;1.77;1.67;;;;;;;;;;5467265;25;20014;-73
2024/04/08 10:50:25;;;;;;;5.18;2.65;;;;;;;;;;5441357;25;20029;-70
2024/04/08 10:52:51;;;;;;;4.85;2.20;;;;;;;;;;5455032;25;20710;-69
2024/04/08 10:55:17;;;;;;;3.08;2.63;;;;;;;;;;5469231;25;20004;-70
2024/04/08 10:57:43;;;;;;;2.88;2.25;;;;;;;;;;5459056;25;20333;-70
2024/04/08 11:00:09;;;;;;;5.50;2.75;;;;;;;;;;5480341;25;20341;-69
2024/04/08 11:02:36;;;;;;;4.10;1.73;;;;;;;;;;5456962;25;20573;-68
2024/04/08 11:05:03;;;;;;;4.65;2.17;;;;;;;;;;5478061;25;20365;-69
2024/04/08 11:07:35;;;;;;;2.72;2.35;;;;;;;;;;5478214;25;20081;-67
2024/04/08 11:10:14;;;;;;;3.15;2.85;;;;;;;;;;5476894;25;20009;-68
2024/04/08 11:12:41;;;;;;;3.95;2.25;;;;;;;;;;5498863;25;20010;-67
2024/04/08 11:15:11;;;;;;;2.97;2.55;;;;;;;;;;5479518;25;20001;-67
2024/04/08 11:17:37;;;;;;;3.80;1.90;;;;;;;;;;5448055;25;19994;-70
2024/04/08 11:20:04;;;;;;;3.25;2.20;;;;;;;;;;5444734;25;20005;-66
2024/04/08 11:22:30;;;;;;;2.05;1.88;;;;;;;;;;5476714;25;19991;-68
2024/04/08 11:24:59;;;;;;;2.47;2.20;;;;;;;;;;5431417;26;19995;-67
2024/04/08 11:27:26;;;;;;;7.57;3.03;;;;;;;;;;5462190;26;20012;-68
2024/04/08 11:29:52;;;;;;;2.25;2.05;;;;;;;;;;5457258;26;20014;-68
2024/04/08 11:32:20;;;;;;;3.08;2.10;;;;;;;;;;5471965;26;20002;-68
2024/04/08 11:34:46;;;;;;;6.25;3.10;;;;;;;;;;5446533;26;20017;-68
2024/04/08 11:37:13;;;;;;;2.92;2.63;;;;;;;;;;5461447;26;20013;-68
2024/04/08 11:39:43;;;;;;;4.35;2.40;;;;;;;;;;5464624;26;19999;-69
2024/04/08 11:42:10;;;;;;;4.78;2.30;;;;;;;;;;5466322;26;20359;-68
2024/04/08 11:44:39;;;;;;;4.75;2.00;;;;;;;;;;5466280;26;20010;-68
2024/04/08 11:47:06;;;;;;;2.85;1.98;;;;;;;;;;5461808;26;20014;-67
2024/04/08 11:49:32;;;;;;;3.17;2.08;;;;;;;;;;5460039;26;20001;-68
2024/04/08 11:52:03;;;;;;;4.22;2.00;;;;;;;;;;5433382;26;19995;-67
2024/04/08 11:54:29;;;;;;;5.70;3.17;;;;;;;;;;5464179;26;20432;-68
2024/04/08 11:56:57;;;;;;;3.97;2.45;;;;;;;;;;5472382;26;20140;-67
2024/04/08 11:59:24;;;;;;;4.68;2.30;;;;;;;;;;5440439;26;20009;-71
2024/04/08 12:01:50;;;;;;;8.63;3.15;;;;;;;;;;5462796;26;20113;-68
2024/04/08 12:04:17;;;;;;;5.95;3.30;;;;;;;;;;5460801;26;20433;-69
2024/04/08 12:06:43;;;;;;;3.97;2.88;;;;;;;;;;5423645;26;20492;-68
2024/04/08 12:09:10;;;;;;;2.00;1.90;;;;;;;;;;5466334;26;19994;-67
2024/04/08 12:11:36;;;;;;;7.50;2.50;;;;;;;;;;5437037;26;20006;-68
2024/04/08 12:14:03;;;;;;;3.28;2.10;;;;;;;;;;5452744;26;20021;-67
2024/04/08 12:16:29;;;;;;;5.00;2.47;;;;;;;;;;5457820;26;20020;-67
2024/04/08 12:18:55;;;;;;;4.70;3.25;;;;;;;;;;5453659;26;20021;-70
2024/04/08 12:21:21;;;;;;;2.13;1.92;;;;;;;;;;5431495;26;22562;-67
2024/04/08 12:23:48;;;;;;;3.55;2.40;;;;;;;;;;5460820;26;20761;-67
2024/04/08 12:26:15;;;;;;;3.38;2.17;;;;;;;;;;5460442;26;20002;-68
2024/04/08 12:28:41;;;;;;;5.97;2.55;;;;;;;;;;5459762;26;20588;-67
2024/04/08 12:31:07;;;;;;;7.28;2.63;;;;;;;;;;5457189;26;20484;-67
2024/04/08 12:33:34;;;;;;;4.20;1.92;;;;;;;;;;5452637;26;20011;-66
2024/04/08 12:36:00;;;;;;;2.45;2.05;;;;;;;;;;5455953;26;20002;-65
2024/04/08 12:38:26;;;;;;;2.95;2.50;;;;;;;;;;5451523;26;20087;-65
2024/04/08 12:40:52;;;;;;;4.43;2.17;;;;;;;;;;5434092;26;19995;-66
2024/04/08 12:43:18;;;;;;;6.78;2.33;;;;;;;;;;5456936;26;20049;-71
2024/04/08 12:45:45;;;;;;;3.75;3.13;;;;;;;;;;5455179;26;20031;-66
2024/04/08 12:48:11;;;;;;;3.45;2.80;;;;;;;;;;5450099;26;20006;-65
2024/04/08 12:50:38;;;;;;;3.42;2.53;;;;;;;;;;5451559;26;20543;-66
2024/04/08 12:53:05;;;;;;;4.15;2.38;;;;;;;;;;5452695;26;20420;-67
2024/04/08 12:55:31;;;;;;;4.25;2.90;;;;;;;;;;5459708;26;20466;-67
2024/04/08 12:57:57;;;;;;;5.20;2.35;;;;;;;;;;5439157;26;20011;-67
2024/04/08 13:00:23;;;;;;;4.80;2.50;;;;;;;;;;5469316;26;20001;-69
2024/04/08 13:02:50;;;;;;;3.50;3.10;;;;;;;;;;5454889;26;20049;-72
2024/04/08 13:05:16;;;;;;;11.43;5.50;;;;;;;;;;5455261;26;19998;-71
2024/04/08 13:07:43;;;;;;;4.95;2.65;;;;;;;;;;5444738;26;19995;-72
2024/04/08 13:10:09;;;;;;;4.43;2.83;;;;;;;;;;5430097;26;20520;-71
2024/04/08 13:12:35;;;;;;;3.38;2.60;;;;;;;;;;5464389;26;20013;-74
2024/04/08 13:15:03;;;;;;;2.60;2.35;;;;;;;;;;5461363;26;20452;-70
2024/04/08 13:17:29;;;;;;;2.53;2.30;;;;;;;;;;5458911;26;20017;-71
2024/04/08 13:19:55;;;;;;;2.63;2.42;;;;;;;;;;5457363;26;20161;-72
2024/04/08 13:22:22;;;;;;;11.30;2.40;;;;;;;;;;5449769;26;20002;-71
2024/04/08 13:24:48;;;;;;;4.68;1.88;;;;;;;;;;5461344;26;20024;-70
2024/04/08 13:27:14;;;;;;;2.42;2.22;;;;;;;;;;5444806;26;20021;-71
2024/04/08 13:29:40;;;;;;;3.88;2.50;;;;;;;;;;5463294;26;20454;-70
2024/04/08 13:32:06;;;;;;;4.50;2.90;;;;;;;;;;5453575;26;20005;-71
2024/04/08 13:34:32;;;;;;;2.40;2.03;;;;;;;;;;5453839;26;20010;-70
2024/04/08 13:36:58;;;;;;;2.50;1.90;;;;;;;;;;5454886;26;20010;-70
2024/04/08 13:39:25;;;;;;;3.65;2.33;;;;;;;;;;5432592;26;19998;-71
2024/04/08 13:41:51;;;;;;;4.90;2.45;;;;;;;;;;5468378;26;20632;-70
2024/04/08 13:44:17;;;;;;;2.80;2.30;;;;;;;;;;5471711;26;20009;-71
2024/04/08 13:46:43;;;;;;;4.55;2.42;;;;;;;;;;5443543;26;21515;-71
2024/04/08 13:49:09;;;;;;;3.53;2.20;;;;;;;;;;5442967;26;20009;-69
2024/04/08 13:51:36;;;;;;;4.93;2.15;;;;;;;;;;5441379;26;20005;-67
2024/04/08 13:54:02;;;;;;;2.72;2.40;;;;;;;;;;5461406;26;20194;-67
2024/04/08 13:56:28;;;;;;;3.10;2.00;;;;;;;;;;5469551;26;20016;-66
2024/04/08 13:58:54;;;;;;;5.45;2.15;;;;;;;;;;5434941;26;20009;-67
2024/04/08 14:01:21;;;;;;;2.45;2.20;;;;;;;;;;5451297;26;20300;-67
2024/04/08 14:03:49;;;;;;;4.15;2.33;;;;;;;;;;5458969;26;20054;-67
2024/04/08 14:06:15;;;;;;;3.72;1.98;;;;;;;;;;5441360;26;20006;-67
2024/04/08 14:08:41;;;;;;;2.72;2.20;;;;;;;;;;5461900;26;20073;-67
2024/04/08 14:11:09;;;;;;;3.03;2.63;;;;;;;;;;5448456;26;20066;-67
2024/04/08 14:13:36;;;;;;;1.95;1.75;;;;;;;;;;5449583;26;20398;-67
2024/04/08 14:16:02;;;;;;;2.17;1.85;;;;;;;;;;5459760;26;20405;-67
2024/04/08 14:18:28;;;;;;;4.07;2.05;;;;;;;;;;5455131;26;20279;-66
2024/04/08 14:20:54;;;;;;;2.95;2.08;;;;;;;;;;5458632;26;19995;-67
2024/04/08 14:23:20;;;;;;;2.75;2.25;;;;;;;;;;5455382;26;20017;-67
2024/04/08 14:25:47;;;;;;;9.00;2.30;;;;;;;;;;5460909;26;19998;-66
2024/04/08 14:28:13;;;;;;;5.72;2.15;;;;;;;;;;5450369;26;20557;-66
2024/04/08 14:30:39;;;;;;;2.70;1.75;;;;;;;;;;5452144;26;20347;-66
2024/04/08 14:33:05;;;;;;;4.38;2.78;;;;;;;;;;5447801;26;19994;-65
2024/04/08 14:35:32;;;;;;;4.25;2.42;;;;;;;;;;5452432;26;20335;-67
2024/04/08 14:37:58;;;;;;;1.63;1.52;;;;;;;;;;5415943;26;20006;-65
2024/04/08 14:40:27;;;;;;;3.50;2.17;;;;;;;;;;5457098;26;20007;-65